createdAt,value
2017-11-13T00:00:02.036Z,15
2017-11-13T00:05:01.212Z,15
2017-11-13T00:10:02.054Z,15
2017-11-13T00:15:02.004Z,15
2017-11-13T00:20:01.617Z,15
2017-11-13T00:25:02.173Z,15
2017-11-13T00:30:02.390Z,15
2017-11-13T00:35:01.298Z,15
2017-11-13T00:40:01.367Z,15
2017-11-13T00:45:01.530Z,15
2017-11-13T00:50:01.703Z,15
2017-11-13T00:55:01.236Z,15.2
2017-11-13T01:00:02.038Z,15.5
2017-11-13T01:05:02.294Z,15.5
2017-11-13T01:10:01.933Z,15.7
2017-11-13T01:15:01.911Z,15.8
2017-11-13T01:20:01.656Z,16
2017-11-13T01:25:01.888Z,16.1
2017-11-13T01:30:01.764Z,16.3
2017-11-13T01:35:01.927Z,16.5
2017-11-13T01:40:02.131Z,16.6
2017-11-13T01:45:01.841Z,16.7
2017-11-13T01:50:01.597Z,16.8
2017-11-13T01:55:01.435Z,16.9
2017-11-13T02:00:02.006Z,16.9
2017-11-13T02:05:01.288Z,17.1
2017-11-13T02:10:01.226Z,17.1
2017-11-13T02:15:01.614Z,17
2017-11-13T02:20:01.473Z,17.3
2017-11-13T02:25:01.462Z,17.3
2017-11-13T02:30:02.131Z,17.2
2017-11-13T02:35:01.663Z,17.2
2017-11-13T02:40:01.572Z,17.6
2017-11-13T02:45:01.538Z,17.5
2017-11-13T02:50:01.671Z,17.5
2017-11-13T02:55:01.294Z,17.7
2017-11-13T03:00:01.286Z,17.8
2017-11-13T03:05:01.936Z,17.7
2017-11-13T03:10:01.506Z,17.8
2017-11-13T03:15:01.791Z,18
2017-11-13T03:20:02.253Z,17.9
2017-11-13T03:25:01.874Z,18
2017-11-13T03:30:02.119Z,18
2017-11-13T03:35:01.338Z,18.1
2017-11-13T03:40:01.911Z,18.1
2017-11-13T03:45:01.206Z,18.1
2017-11-13T03:50:02.141Z,18.3
2017-11-13T03:55:01.233Z,18.2
2017-11-13T04:00:01.876Z,18.2
2017-11-13T04:05:01.657Z,18.1
2017-11-13T04:10:01.880Z,18
2017-11-13T04:15:01.570Z,17.8
2017-11-13T04:20:01.977Z,17.9
2017-11-13T04:25:01.708Z,17.9
2017-11-13T04:30:02.483Z,17.8
2017-11-13T04:35:01.188Z,18
2017-11-13T04:40:01.216Z,17.9
2017-11-13T04:45:01.396Z,18
2017-11-13T04:50:01.973Z,18
2017-11-13T04:55:01.643Z,18.1
2017-11-13T05:00:01.823Z,18.1
2017-11-13T05:05:01.756Z,18.2
2017-11-13T05:10:01.685Z,18.3
2017-11-13T05:15:01.462Z,18.2
2017-11-13T05:20:01.686Z,18.2
2017-11-13T05:25:01.784Z,18.4
2017-11-13T05:30:01.817Z,18.4
2017-11-13T05:35:02.103Z,18.3
2017-11-13T05:40:01.723Z,18.2
2017-11-13T05:45:01.220Z,18
2017-11-13T05:50:02.467Z,18
2017-11-13T05:55:01.659Z,18
2017-11-13T06:00:01.694Z,17.9
2017-11-13T06:05:01.269Z,17.7
2017-11-13T06:10:01.593Z,17.6
2017-11-13T06:15:02.014Z,17.4
2017-11-13T06:20:02.062Z,17.4
2017-11-13T06:25:01.558Z,17.2
2017-11-13T06:30:01.560Z,17
2017-11-13T06:35:01.425Z,16.9
2017-11-13T06:40:01.601Z,16.8
2017-11-13T06:45:01.717Z,16.8
2017-11-13T06:50:01.674Z,16.7
2017-11-13T06:55:02.018Z,16.7
2017-11-13T07:00:02.006Z,16.7
2017-11-13T07:05:01.708Z,16.7
2017-11-13T07:10:02.338Z,16.6
2017-11-13T07:15:01.730Z,16.6
2017-11-13T07:20:01.617Z,16.5
2017-11-13T07:25:01.558Z,16.5
2017-11-13T07:30:02.056Z,16.5
2017-11-13T07:35:01.979Z,16.6
2017-11-13T07:40:01.839Z,16.5
2017-11-13T07:45:02.041Z,16.5
2017-11-13T07:50:02.069Z,16.2
2017-11-13T07:55:01.576Z,16.2
2017-11-13T08:00:02.307Z,16.2
2017-11-13T08:05:02.179Z,16.1
2017-11-13T08:10:01.802Z,15.8
2017-11-13T08:15:01.474Z,15.8
2017-11-13T08:20:01.937Z,15.6
2017-11-13T08:25:01.825Z,15.3
2017-11-13T08:30:01.584Z,15.3
2017-11-13T08:35:01.999Z,15
2017-11-13T08:40:01.763Z,15
2017-11-13T08:45:02.056Z,15
2017-11-13T08:50:02.527Z,15
2017-11-13T08:55:01.562Z,15
2017-11-13T09:00:01.652Z,15
2017-11-13T09:05:01.588Z,15
2017-11-13T09:10:02.219Z,14.7
2017-11-13T09:15:01.262Z,14.6
2017-11-13T09:20:02.087Z,14.6
2017-11-13T09:25:01.840Z,14.6
2017-11-13T09:30:02.384Z,14.2
2017-11-13T09:35:01.505Z,14.2
2017-11-13T09:40:01.351Z,14.1
2017-11-13T09:45:01.642Z,14.1
2017-11-13T09:50:02.274Z,14.1
2017-11-13T09:55:01.985Z,13.9
2017-11-13T10:00:01.706Z,13.8
2017-11-13T10:05:01.970Z,13.9
2017-11-13T10:10:01.753Z,13.9
2017-11-13T10:15:01.193Z,13.9
2017-11-13T10:20:01.897Z,13.6
2017-11-13T10:25:01.661Z,13.6
2017-11-13T10:30:01.895Z,13.6
2017-11-13T10:35:01.792Z,13.6
2017-11-13T10:40:01.896Z,13.6
2017-11-13T10:45:01.728Z,13.6
2017-11-13T10:50:01.725Z,13.6
2017-11-13T10:55:01.753Z,13.6
2017-11-13T11:00:01.224Z,13.6
2017-11-13T11:05:01.298Z,13.4
2017-11-13T11:10:02.419Z,13.5
2017-11-13T11:15:01.547Z,13.5
2017-11-13T11:20:01.452Z,13.6
2017-11-13T11:25:02.507Z,13.6
2017-11-13T11:30:01.717Z,13.6
2017-11-13T11:35:01.720Z,13.5
2017-11-13T11:40:01.540Z,13.6
2017-11-13T11:45:01.681Z,13.6
2017-11-13T11:50:01.521Z,13.6
2017-11-13T11:55:02.068Z,13.5
2017-11-13T12:00:01.756Z,13.5
2017-11-13T12:05:01.298Z,13.5
2017-11-13T12:10:01.385Z,13.6
2017-11-13T12:15:02.166Z,13.6
2017-11-13T12:20:01.920Z,13.6
2017-11-13T12:25:01.859Z,13.6
2017-11-13T12:30:02.566Z,13.6
2017-11-13T12:35:01.426Z,13.6
2017-11-13T12:40:01.839Z,13.7
2017-11-13T12:45:02.447Z,13.6
2017-11-13T12:50:01.614Z,13.6
2017-11-13T12:55:02.062Z,13.6
2017-11-13T13:00:01.468Z,13.6
2017-11-13T13:05:01.986Z,13.6
2017-11-13T13:10:01.791Z,13.6
2017-11-13T13:15:01.889Z,13.6
2017-11-13T13:20:02.082Z,13.5
2017-11-13T13:25:01.187Z,13.5
2017-11-13T13:30:01.594Z,13.5
2017-11-13T13:35:01.746Z,13.5
2017-11-13T13:40:02.378Z,13.5
2017-11-13T13:45:01.597Z,13.5
2017-11-13T13:50:01.627Z,13.5
2017-11-13T13:55:01.380Z,13.6
2017-11-13T14:00:02.181Z,13.6
2017-11-13T14:05:01.875Z,13.8
2017-11-13T14:10:01.905Z,13.8
2017-11-13T14:15:01.704Z,13.8
2017-11-13T14:20:02.125Z,13.6
2017-11-13T14:25:01.748Z,13.6
2017-11-13T14:30:01.725Z,13.6
2017-11-13T14:35:01.729Z,13.6
2017-11-13T14:40:01.627Z,13.6
2017-11-13T14:45:01.417Z,13.6
2017-11-13T14:50:01.332Z,13.9
2017-11-13T14:55:02.133Z,13.9
2017-11-13T15:00:01.217Z,13.9
2017-11-13T15:05:01.574Z,13.9
2017-11-13T15:10:01.508Z,13.9
2017-11-13T15:15:01.724Z,14
2017-11-13T15:20:01.356Z,14
2017-11-13T15:25:01.238Z,14
2017-11-13T15:30:01.854Z,14
2017-11-13T15:35:01.212Z,14
2017-11-13T15:40:02.139Z,14.4
2017-11-13T15:45:01.533Z,14.4
2017-11-13T15:50:01.856Z,14.4
2017-11-13T15:55:01.405Z,14.5
2017-11-13T16:00:01.508Z,14.7
2017-11-13T16:05:01.941Z,14.7
2017-11-13T16:10:01.735Z,14.7
2017-11-13T16:15:01.497Z,15
2017-11-13T16:20:01.614Z,15
2017-11-13T16:25:02.002Z,15
2017-11-13T16:30:02.096Z,15
2017-11-13T16:35:01.660Z,15
2017-11-13T16:40:02.135Z,15
2017-11-13T16:45:01.809Z,15
2017-11-13T16:50:01.798Z,15
2017-11-13T16:55:01.788Z,15
2017-11-13T17:00:02.336Z,15
2017-11-13T17:05:01.751Z,15
2017-11-13T17:10:01.792Z,15
2017-11-13T17:15:01.474Z,15
2017-11-13T17:20:01.555Z,15.1
2017-11-13T17:25:01.918Z,15.4
2017-11-13T17:30:02.086Z,15.2
2017-11-13T17:35:02.490Z,15.2
2017-11-13T17:40:01.880Z,15.2
2017-11-13T17:45:01.336Z,15.2
2017-11-13T17:50:01.391Z,15.2
2017-11-13T17:55:01.859Z,15.2
2017-11-13T18:00:01.822Z,15.2
2017-11-13T18:05:01.774Z,15.4
2017-11-13T18:10:02.373Z,15.6
2017-11-13T18:15:01.543Z,15.6
2017-11-13T18:20:02.156Z,15.6
2017-11-13T18:25:01.727Z,15.7
2017-11-13T18:30:01.787Z,15.7
2017-11-13T18:35:01.763Z,15.7
2017-11-13T18:40:01.525Z,15.9
2017-11-13T18:45:01.988Z,15.9
2017-11-13T18:50:01.584Z,16
2017-11-13T18:55:01.227Z,16
2017-11-13T19:00:01.852Z,16.2
2017-11-13T19:05:01.645Z,16.2
2017-11-13T19:10:01.772Z,16.2
2017-11-13T19:15:02.050Z,16.4
2017-11-13T19:20:01.422Z,16.5
2017-11-13T19:25:01.639Z,16.5
2017-11-13T19:30:02.317Z,16.8
2017-11-13T19:35:01.799Z,16.9
2017-11-13T19:40:02.223Z,16.9
2017-11-13T19:45:01.403Z,17.2
2017-11-13T19:50:01.876Z,17.4
2017-11-13T19:55:02.192Z,17.7
2017-11-13T20:00:01.518Z,17.8
2017-11-13T20:05:02.312Z,18
2017-11-13T20:10:01.971Z,18.1
2017-11-13T20:15:01.446Z,18.1
2017-11-13T20:20:01.604Z,18.2
2017-11-13T20:25:01.889Z,18.2
2017-11-13T20:30:01.934Z,18.3
2017-11-13T20:35:02.046Z,18.2
2017-11-13T20:40:01.701Z,18.2
2017-11-13T20:45:01.401Z,18.3
2017-11-13T20:50:01.224Z,18.4
2017-11-13T20:55:02.063Z,18.4
2017-11-13T21:00:01.822Z,18.6
2017-11-13T21:05:02.081Z,18.6
2017-11-13T21:10:02.517Z,18.6
2017-11-13T21:15:01.304Z,18.8
2017-11-13T21:20:01.303Z,18.8
2017-11-13T21:25:01.629Z,18.9
2017-11-13T21:30:01.956Z,18.8
2017-11-13T21:35:02.098Z,18.9
2017-11-13T21:40:01.273Z,18.9
2017-11-13T21:45:02.220Z,18.9
2017-11-13T21:50:01.893Z,19
2017-11-13T21:55:01.667Z,18.9
2017-11-13T22:00:01.817Z,19.1
2017-11-13T22:05:01.631Z,19
2017-11-13T22:10:01.597Z,19.1
2017-11-13T22:15:01.566Z,19
2017-11-13T22:20:01.532Z,18.9
2017-11-13T22:25:01.670Z,18.8
2017-11-13T22:30:01.849Z,18.7
2017-11-13T22:35:02.618Z,18.6
2017-11-13T22:40:01.251Z,18.6
2017-11-13T22:45:01.794Z,18.5
2017-11-13T22:50:01.676Z,18.4
2017-11-13T22:55:02.308Z,18.4
2017-11-13T23:00:01.318Z,18.4
2017-11-13T23:05:01.858Z,18.3
2017-11-13T23:10:02.580Z,18
2017-11-13T23:15:01.580Z,18
2017-11-13T23:20:01.681Z,17.8
2017-11-13T23:25:01.938Z,17.8
2017-11-13T23:30:02.621Z,17.8
2017-11-13T23:35:01.187Z,17.9
2017-11-13T23:40:02.121Z,17.8
2017-11-13T23:45:01.325Z,17.8
2017-11-13T23:50:01.674Z,18
2017-11-13T23:55:01.376Z,18
